Time;durP1;ratioP1;P1;durP2;ratioP2;P2;SDS_P1;SDS_P2;PMS_P1;PMS_P2;Temp;Humidity;BMP_temperature;BMP_pressure;BME280_temperature;BME280_humidity;BME280_pressure;Samples;Min_cycle;Max_cycle;Signal;HPM_P1;HPM_P2
2021/06/25 05:00:39;;;;;;;22.75;9.38;;;;;;;26.47;67.96;94878.47;5834024;23;20419;-84
2021/06/25 05:03:06;;;;;;;22.10;9.73;;;;;;;26.37;68.50;94867.06;4929088;29;20035;-86
2021/06/25 05:05:32;;;;;;;24.83;9.75;;;;;;;26.74;66.36;94872.78;4913346;29;20473;-88
2021/06/25 05:07:58;;;;;;;16.25;7.30;;;;;;;28.33;61.95;94875.59;4912983;29;20019;-89
2021/06/25 05:10:23;;;;;;;22.27;8.70;;;;;;;28.44;62.07;94863.75;4930293;29;20027;-90
2021/06/25 05:12:49;;;;;;;19.35;8.20;;;;;;;28.87;61.02;94877.91;4915847;29;20481;-89
2021/06/25 05:15:15;;;;;;;25.20;8.95;;;;;;;29.89;58.24;94872.72;4931309;29;20038;-90
2021/06/25 05:17:40;;;;;;;19.98;8.13;;;;;;;30.94;54.73;94877.13;4895410;29;20054;-90
2021/06/25 05:20:06;;;;;;;19.20;8.05;;;;;;;32.23;50.14;94873.59;4917310;29;20031;-87
2021/06/25 05:22:32;;;;;;;16.58;8.27;;;;;;;30.15;54.07;94871.16;4916361;29;20039;-87
2021/06/25 05:24:58;;;;;;;20.50;7.82;;;;;;;30.30;53.02;94870.09;4916117;29;20465;-89
2021/06/25 05:27:23;;;;;;;22.98;8.00;;;;;;;32.32;48.68;94863.69;4901669;29;20485;-88
2021/06/25 05:29:48;;;;;;;23.63;8.90;;;;;;;33.19;48.33;94862.88;4932094;29;20028;-86
2021/06/25 05:32:14;;;;;;;28.17;8.65;;;;;;;34.01;46.06;94856.47;4933669;29;20032;-86
2021/06/25 05:34:39;;;;;;;14.45;7.22;;;;;;;34.23;45.51;94860.91;4895720;29;20521;-87
2021/06/25 05:37:05;;;;;;;28.90;8.07;;;;;;;33.18;46.84;94863.16;4930919;29;20524;-85
2021/06/25 05:39:30;;;;;;;16.50;7.82;;;;;;;33.47;46.99;94865.22;4933109;29;20024;-91
2021/06/25 05:41:56;;;;;;;21.17;7.93;;;;;;;33.20;47.18;94858.28;4917100;29;20020;-87
2021/06/25 05:44:21;;;;;;;18.73;7.90;;;;;;;34.38;46.20;94866.53;4933011;29;20090;-89
2021/06/25 05:46:47;;;;;;;20.48;7.55;;;;;;;34.12;44.32;94878.50;4931724;29;20039;-87
2021/06/25 05:49:12;;;;;;;20.33;7.57;;;;;;;34.22;42.32;94870.88;4915184;29;20040;-88
2021/06/25 05:51:38;;;;;;;24.02;7.10;;;;;;;35.13;41.36;94873.00;4896498;29;20088;-88
2021/06/25 05:54:03;;;;;;;17.83;6.95;;;;;;;32.89;43.62;94867.22;4897927;29;20040;-86
2021/06/25 05:56:29;;;;;;;20.80;7.10;;;;;;;36.23;39.32;94866.97;4912300;29;20055;-88
2021/06/25 05:58:54;;;;;;;18.77;6.57;;;;;;;37.94;36.40;94869.22;4929927;29;20038;-88
2021/06/25 06:01:20;;;;;;;19.75;7.32;;;;;;;36.50;38.96;94870.19;4929121;29;20549;-90
2021/06/25 06:03:45;;;;;;;17.88;7.03;;;;;;;35.69;41.20;94876.22;4909907;29;20031;-88
2021/06/25 06:06:11;;;;;;;20.17;6.85;;;;;;;36.99;38.31;94877.19;4900839;29;20035;-87
2021/06/25 06:08:37;;;;;;;29.83;8.07;;;;;;;36.77;40.21;94880.31;4898952;29;20027;-89
2021/06/25 06:11:04;;;;;;;12.35;6.88;;;;;;;35.43;41.56;94887.22;4897255;29;20446;-88
2021/06/25 06:13:29;;;;;;;15.73;7.40;;;;;;;36.06;39.44;94885.28;4912090;29;20028;-89
2021/06/25 06:15:57;;;;;;;23.92;8.40;;;;;;;34.90;42.42;94877.84;4911601;29;20027;-91
2021/06/25 06:18:37;;;;;;;18.67;7.03;;;;;;;36.59;39.30;94877.06;4894849;29;20032;-89
2021/06/25 06:21:02;;;;;;;19.80;7.40;;;;;;;37.21;39.67;94882.13;4920356;29;20042;-88
2021/06/25 06:31:44;;;;;;;17.98;8.45;;;;;;;36.79;39.20;94873.47;4911436;29;20539;-88
2021/06/25 06:34:12;;;;;;;24.73;8.65;;;;;;;36.77;39.91;94870.31;4921345;29;20024;-86
2021/06/25 06:36:45;;;;;;;;;;;;;;;35.19;41.39;94879.75;4928486;29;20028;-84
2021/06/25 06:39:11;;;;;;;18.23;9.30;;;;;;;36.77;40.11;94881.13;4929513;29;19925;-87
2021/06/25 06:41:36;;;;;;;20.42;8.02;;;;;;;37.72;39.18;94883.25;4915184;29;20024;-85
2021/06/25 06:44:02;;;;;;;16.52;6.80;;;;;;;33.83;46.83;94877.25;4912793;29;20502;-89
2021/06/25 06:46:28;;;;;;;24.55;8.10;;;;;;;32.00;50.92;94879.28;4931991;29;20122;-85
2021/06/25 06:48:53;;;;;;;22.33;8.05;;;;;;;33.00;47.53;94867.72;4931299;29;20402;-83
2021/06/25 06:51:19;;;;;;;22.15;7.97;;;;;;;33.45;48.10;94873.63;4885398;29;20097;-87
2021/06/25 06:53:45;;;;;;;18.75;8.07;;;;;;;33.15;50.24;94869.16;4896106;29;20028;-86
2021/06/25 06:56:15;;;;;;;25.48;7.72;;;;;;;34.12;46.79;94875.78;4897284;29;20122;-86
2021/06/25 06:58:40;;;;;;;21.55;8.63;;;;;;;36.80;40.36;94861.53;4874273;29;20036;-93
2021/06/25 07:01:09;;;;;;;18.85;7.50;;;;;;;39.03;37.08;94856.06;4878956;29;20048;-84
2021/06/25 07:03:34;;;;;;;;;;;;;;;38.74;37.24;94863.50;4898743;29;20036;-84
2021/06/25 07:06:00;;;;;;;19.58;7.78;;;;;;;38.60;37.09;94863.16;4927718;29;19919;-81
2021/06/25 07:08:25;;;;;;;18.77;8.82;;;;;;;38.42;37.15;94864.66;4897625;29;20051;-83
2021/06/25 07:10:51;;;;;;;22.55;10.13;;;;;;;34.28;43.00;94863.41;4911530;29;20425;-90
2021/06/25 07:13:16;;;;;;;28.23;9.90;;;;;;;35.19;41.71;94868.22;4903860;29;20080;-86
2021/06/25 07:15:42;;;;;;;29.80;8.85;;;;;;;34.49;44.37;94872.34;4931469;29;20042;-85
2021/06/25 07:18:07;;;;;;;22.48;8.77;;;;;;;31.54;50.98;94871.53;4930275;29;20420;-83
2021/06/25 07:20:33;;;;;;;20.65;9.10;;;;;;;29.50;53.36;94854.34;4898603;29;20060;-88
2021/06/25 07:22:59;;;;;;;29.13;9.20;;;;;;;31.38;52.71;94857.69;4925613;29;20063;-84
2021/06/25 07:25:24;;;;;;;21.98;8.63;;;;;;;31.90;53.03;94866.13;4913981;29;20035;-86
2021/06/25 07:27:50;;;;;;;32.85;9.52;;;;;;;31.61;53.70;94869.25;4882955;29;20512;-83
2021/06/25 07:30:16;;;;;;;28.92;9.75;;;;;;;31.90;52.11;94866.91;4913190;29;20032;-88
2021/06/25 07:32:41;;;;;;;19.95;9.85;;;;;;;31.16;50.41;94871.06;4930848;29;20031;-84
2021/06/25 07:35:07;;;;;;;17.88;8.55;;;;;;;32.65;48.44;94855.31;4895918;29;20046;-85
2021/06/25 07:37:33;;;;;;;27.27;9.30;;;;;;;31.79;52.56;94855.66;4882621;29;20572;-88
2021/06/25 07:39:58;;;;;;;25.85;9.70;;;;;;;31.80;50.45;94862.59;4896760;29;20159;-84
2021/06/25 07:42:25;;;;;;;26.13;10.25;;;;;;;30.48;52.43;94852.38;4914050;29;20022;-81
2021/06/25 07:44:51;;;;;;;27.15;9.60;;;;;;;30.29;55.76;94858.59;4897918;29;20027;-81
2021/06/25 07:47:17;;;;;;;32.17;9.68;;;;;;;30.87;54.18;94854.53;4912827;29;20053;-80
2021/06/25 07:49:42;;;;;;;20.35;8.82;;;;;;;29.67;56.23;94854.59;4898051;29;20066;-87
2021/06/25 07:52:08;;;;;;;26.67;9.45;;;;;;;29.69;56.95;94849.75;4929845;29;20055;-84
2021/06/25 07:54:33;;;;;;;21.13;8.57;;;;;;;30.95;55.06;94859.19;4898067;29;20028;-84
2021/06/25 07:56:59;;;;;;;27.90;9.77;;;;;;;30.38;54.08;94850.66;4912803;29;20085;-85
2021/06/25 07:59:24;;;;;;;29.85;10.05;;;;;;;31.81;53.65;94850.78;4930882;29;20028;-85
2021/06/25 08:01:49;;;;;;;23.13;9.90;;;;;;;30.93;53.28;94859.47;4912430;29;20552;-84
2021/06/25 08:04:15;;;;;;;30.67;8.77;;;;;;;31.19;53.55;94854.38;4898138;29;20027;-83
2021/06/25 08:06:40;;;;;;;25.05;8.60;;;;;;;32.31;52.30;94847.91;4913256;29;20032;-88
2021/06/25 08:09:07;;;;;;;21.50;8.32;;;;;;;32.32;52.81;94846.81;4897318;29;20032;-84
2021/06/25 08:11:33;;;;;;;29.17;8.60;;;;;;;31.23;53.67;94834.75;4931090;29;20087;-84
2021/06/25 08:13:58;;;;;;;26.80;8.55;;;;;;;32.59;50.52;94832.41;4890090;29;20036;-82
2021/06/25 08:16:24;;;;;;;23.17;9.48;;;;;;;32.21;53.34;94835.56;4910926;29;20058;-89
2021/06/25 08:18:56;;;;;;;33.97;10.00;;;;;;;31.24;52.38;94848.94;4906052;29;20020;-85
2021/06/25 08:21:22;;;;;;;28.50;10.00;;;;;;;31.47;55.44;94842.47;4900579;29;20036;-83
2021/06/25 08:23:48;;;;;;;25.25;9.77;;;;;;;30.77;56.16;94837.59;4893890;29;20028;-86
2021/06/25 08:26:13;;;;;;;39.88;12.43;;;;;;;31.11;51.01;94842.53;4894726;29;20447;-86
2021/06/25 08:28:39;;;;;;;32.85;9.63;;;;;;;31.21;53.16;94839.59;4911453;29;20134;-82
2021/06/25 08:31:04;;;;;;;31.45;8.85;;;;;;;32.40;52.27;94845.25;4893348;29;20055;-82
2021/06/25 08:33:30;;;;;;;21.17;7.53;;;;;;;32.03;50.81;94841.91;4894515;29;20028;-83
2021/06/25 08:35:55;;;;;;;31.67;9.85;;;;;;;31.56;52.24;94850.63;4909080;29;20036;-84
2021/06/25 08:38:20;;;;;;;23.67;10.55;;;;;;;31.58;49.59;94851.91;4911889;29;20036;-87
2021/06/25 08:40:46;;;;;;;26.15;9.38;;;;;;;31.81;49.17;94852.66;4893646;29;20028;-91
2021/06/25 08:43:11;;;;;;;27.15;7.88;;;;;;;32.26;50.97;94842.69;4894596;29;20063;-86
2021/06/25 08:45:37;;;;;;;26.52;8.10;;;;;;;32.21;51.91;94840.13;4894002;29;20095;-84
2021/06/25 08:48:05;;;;;;;26.42;8.63;;;;;;;32.11;51.12;94837.72;4900739;29;20012;-82
2021/06/25 08:50:31;;;;;;;27.27;8.17;;;;;;;32.40;50.62;94837.97;4917907;29;20040;-84
2021/06/25 08:52:56;;;;;;;21.50;8.27;;;;;;;33.24;49.37;94835.84;4911818;29;20107;-90
2021/06/25 08:55:22;;;;;;;21.27;8.05;;;;;;;33.02;48.40;94843.22;4896077;29;20119;-87
2021/06/25 08:57:48;;;;;;;33.70;8.05;;;;;;;33.09;49.31;94832.84;4907935;29;20498;-87
2021/06/25 09:00:15;;;;;;;31.42;8.63;;;;;;;32.12;50.46;94829.38;4884330;29;20099;-78
2021/06/25 09:02:41;;;;;;;28.60;8.10;;;;;;;31.90;48.03;94842.78;4896382;29;20051;-80
2021/06/25 09:05:28;;;;;;;25.33;7.68;;;;;;;32.91;48.85;94836.59;4914192;29;20111;-79
2021/06/25 09:07:57;;;;;;;17.65;6.85;;;;;;;32.42;48.80;94837.69;4933187;29;20031;-81
2021/06/25 09:10:48;;;;;;;14.02;7.43;;;;;;;33.20;51.18;94829.50;4899338;29;20555;-80
2021/06/25 09:13:14;;;;;;;24.52;8.98;;;;;;;32.65;50.44;94828.47;4885721;29;20190;-81
2021/06/25 09:15:41;;;;;;;26.42;7.70;;;;;;;32.92;49.98;94822.03;4926593;29;20482;-84
2021/06/25 09:18:06;;;;;;;25.48;8.38;;;;;;;31.94;50.82;94826.88;4933294;29;20082;-80
2021/06/25 09:20:39;;;;;;;26.23;8.38;;;;;;;33.21;50.45;94825.72;4933432;29;20063;-83
2021/06/25 09:23:36;;;;;;;25.00;7.68;;;;;;;32.95;49.27;94810.66;4914738;29;20414;-80
2021/06/25 09:26:10;;;;;;;31.73;9.13;;;;;;;32.60;45.97;94805.25;4925347;29;20126;-81
2021/06/25 09:28:38;;;;;;;26.67;8.57;;;;;;;32.94;46.93;94819.84;4909340;29;20028;-77
2021/06/25 09:31:17;;;;;;;31.25;9.18;;;;;;;33.03;46.64;94809.91;4913749;29;20052;-79
2021/06/25 09:33:54;;;;;;;24.83;8.50;;;;;;;33.07;48.97;94808.97;4897325;29;20032;-80
2021/06/25 09:36:21;;;;;;;23.92;7.63;;;;;;;33.08;47.31;94805.16;4880179;29;20028;-80
2021/06/25 09:38:46;;;;;;;28.02;7.65;;;;;;;32.01;46.31;94803.91;4926155;29;20073;-80
2021/06/25 09:41:16;;;;;;;19.92;7.30;;;;;;;32.05;48.44;94804.88;4914538;29;20594;-79
2021/06/25 09:43:43;;;;;;;19.77;7.88;;;;;;;32.86;47.58;94799.94;4900348;29;20533;-79
2021/06/25 09:46:09;;;;;;;29.33;7.65;;;;;;;33.27;45.17;94796.78;4900173;29;20112;-79
2021/06/25 09:48:55;;;;;;;24.75;7.18;;;;;;;32.65;44.47;94788.22;4913211;29;20488;-81
2021/06/25 09:51:21;;;;;;;32.13;8.32;;;;;;;32.74;45.12;94791.72;4897492;29;20039;-78
2021/06/25 09:54:09;;;;;;;17.40;7.10;;;;;;;33.53;48.08;94794.88;4916300;29;20038;-78
2021/06/25 09:56:38;;;;;;;19.98;7.88;;;;;;;33.34;48.76;94781.00;4933361;29;20627;-82
2021/06/25 10:01:53;;;;;;;17.15;7.57;;;;;;;33.96;47.39;94791.31;4931644;29;20043;-81
2021/06/25 10:04:37;;;;;;;19.77;7.10;;;;;;;33.70;45.08;94786.81;4915156;29;20521;-78
2021/06/25 10:07:16;;;;;;;21.83;6.93;;;;;;;33.75;46.90;94783.16;4909078;29;20028;-81
2021/06/25 10:09:42;;;;;;;22.13;6.70;;;;;;;33.81;48.20;94773.81;4932806;29;20058;-84
2021/06/25 10:12:13;;;;;;;16.77;6.45;;;;;;;33.72;39.59;94771.16;4932668;29;20450;-78
2021/06/25 10:14:39;;;;;;;21.15;6.45;;;;;;;33.40;46.04;94777.03;4930381;29;20092;-83
2021/06/25 10:17:05;;;;;;;25.65;7.97;;;;;;;33.58;44.71;94770.53;4933308;29;20079;-81
2021/06/25 10:19:32;;;;;;;23.80;7.82;;;;;;;33.99;45.98;94766.47;4898809;29;20095;-80
2021/06/25 10:22:01;;;;;;;30.42;7.72;;;;;;;33.73;43.92;94751.22;4882042;29;20036;-79
2021/06/25 10:24:27;;;;;;;19.55;6.57;;;;;;;33.79;43.23;94765.28;4896304;29;20035;-80
2021/06/25 10:26:54;;;;;;;24.27;7.07;;;;;;;33.88;45.30;94764.13;4881206;29;20082;-79
2021/06/25 10:29:20;;;;;;;24.33;7.20;;;;;;;34.19;43.55;94769.28;4904086;29;20517;-78
2021/06/25 10:31:46;;;;;;;24.27;8.35;;;;;;;34.23;44.04;94764.03;4910617;29;20705;-79
2021/06/25 10:34:11;;;;;;;23.60;6.78;;;;;;;34.03;43.02;94768.22;4911958;29;20043;-78
2021/06/25 10:36:37;;;;;;;16.80;6.35;;;;;;;34.02;45.31;94758.56;4903862;29;20035;-80
2021/06/25 10:39:06;;;;;;;23.17;7.18;;;;;;;34.47;43.47;94756.13;4923928;29;20043;-83
2021/06/25 10:41:48;;;;;;;29.30;7.72;;;;;;;34.34;43.93;94754.47;4898644;29;20115;-79
2021/06/25 10:44:54;;;;;;;32.50;7.50;;;;;;;34.07;46.03;94752.97;4899529;29;20513;-81
2021/06/25 10:47:23;;;;;;;28.65;7.47;;;;;;;34.39;46.74;94746.19;4924944;29;20130;-80
2021/06/25 10:52:27;;;;;;;27.55;6.55;;;;;;;34.47;43.34;94745.38;4925890;29;20083;-81
2021/06/25 10:55:06;;;;;;;30.55;6.20;;;;;;;34.36;42.63;94726.13;4898860;29;20027;-81
2021/06/25 10:57:36;;;;;;;30.08;7.07;;;;;;;34.51;45.12;94737.44;4916209;29;20036;-82
2021/06/25 11:00:03;;;;;;;30.27;7.13;;;;;;;34.45;45.15;94744.91;4915436;29;20497;-79
2021/06/25 11:02:45;;;;;;;22.88;6.72;;;;;;;34.47;43.81;94733.81;4930535;29;20047;-77
2021/06/25 11:05:26;;;;;;;23.27;6.78;;;;;;;34.51;42.23;94738.22;4915639;29;20380;-82
2021/06/25 11:07:52;;;;;;;19.58;6.68;;;;;;;34.58;45.44;94741.16;4931495;29;20027;-80
2021/06/25 11:10:33;;;;;;;25.33;7.53;;;;;;;34.57;45.11;94726.16;4896808;29;20043;-81
2021/06/25 11:13:21;;;;;;;32.30;7.50;;;;;;;34.51;40.55;94732.06;4896421;29;20486;-80
2021/06/25 11:15:52;;;;;;;23.13;6.90;;;;;;;34.33;41.57;94718.69;4930643;29;20447;-82
2021/06/25 11:18:22;;;;;;;20.30;7.10;;;;;;;34.67;42.91;94736.56;4899165;29;20045;-78
2021/06/25 11:20:49;;;;;;;23.73;6.22;;;;;;;34.78;41.25;94723.47;4906441;29;20496;-81
2021/06/25 11:23:18;;;;;;;26.35;6.72;;;;;;;34.86;42.95;94711.88;4904852;29;20032;-78
2021/06/25 11:25:59;;;;;;;24.40;6.32;;;;;;;34.97;39.76;94720.34;4903798;29;20044;-83
2021/06/25 11:28:36;;;;;;;21.95;6.10;;;;;;;34.83;39.82;94713.31;4896802;29;20043;-80
2021/06/25 11:31:17;;;;;;;28.02;6.38;;;;;;;34.84;42.31;94717.56;4930937;29;20531;-80
2021/06/25 11:34:00;;;;;;;22.08;5.28;;;;;;;34.91;40.87;94712.44;4912716;29;20043;-80
2021/06/25 11:36:47;;;;;;;27.38;6.35;;;;;;;35.28;40.71;94702.63;4914459;29;20029;-80
2021/06/25 11:39:20;;;;;;;20.80;5.32;;;;;;;35.02;40.82;94714.75;4901333;29;20489;-78
2021/06/25 11:41:57;;;;;;;21.40;5.07;;;;;;;34.78;37.37;94710.81;4930640;29;20026;-80
2021/06/25 11:44:26;;;;;;;29.03;6.37;;;;;;;34.61;41.88;94719.03;4931344;29;20046;-78
2021/06/25 11:46:58;;;;;;;;;;;;;;;35.01;37.00;94718.53;4921004;29;20059;-79
2021/06/25 11:49:28;;;;;;;18.40;4.53;;;;;;;34.91;40.16;94711.66;4919202;29;20332;-78
2021/06/25 11:51:54;;;;;;;23.38;5.82;;;;;;;35.01;39.29;94708.56;4918022;29;20024;-80
2021/06/25 11:54:21;;;;;;;18.88;5.95;;;;;;;34.81;37.79;94707.47;4924373;29;20028;-78
2021/06/25 11:56:47;;;;;;;26.00;6.82;;;;;;;34.92;34.24;94703.25;4924054;29;20051;-86
2021/06/25 11:59:13;;;;;;;26.67;6.05;;;;;;;35.17;34.86;94703.38;4897999;29;20032;-78
2021/06/25 12:01:59;;;;;;;26.52;6.05;;;;;;;35.18;36.24;94699.56;4903681;29;20142;-78
2021/06/25 12:04:34;;;;;;;24.30;5.95;;;;;;;35.19;37.23;94703.84;4925396;29;20481;-80
2021/06/25 12:07:00;;;;;;;25.15;5.55;;;;;;;35.21;38.61;94691.59;4920187;29;20028;-80
2021/06/25 12:09:42;;;;;;;23.73;5.75;;;;;;;35.20;36.79;94690.03;4926286;29;20054;-79
2021/06/25 12:12:20;;;;;;;25.17;5.25;;;;;;;35.10;36.03;94686.94;4907338;29;20028;-79
2021/06/25 12:14:50;;;;;;;30.48;6.85;;;;;;;34.94;37.11;94682.16;4922582;29;20032;-79
2021/06/25 12:17:16;;;;;;;24.17;5.95;;;;;;;34.90;35.91;94670.47;4900253;29;20483;-81
2021/06/25 12:19:57;;;;;;;29.00;6.65;;;;;;;35.10;37.87;94654.63;4914942;29;20028;-78
2021/06/25 12:22:23;;;;;;;24.77;6.15;;;;;;;35.17;35.72;94679.13;4898571;29;20425;-77
2021/06/25 12:24:49;;;;;;;21.35;5.35;;;;;;;35.04;38.30;94666.69;4925543;29;20047;-78
2021/06/25 12:27:15;;;;;;;18.48;5.72;;;;;;;35.02;35.61;94667.03;4934653;29;20413;-78
2021/06/25 12:29:40;;;;;;;20.25;6.88;;;;;;;34.86;39.00;94666.09;4915959;29;20038;-79
2021/06/25 12:32:24;;;;;;;34.83;6.38;;;;;;;34.73;37.27;94651.78;4934810;29;20028;-78
2021/06/25 12:34:57;;;;;;;23.58;5.88;;;;;;;34.98;38.66;94659.94;4924483;29;20032;-77
2021/06/25 12:37:23;;;;;;;27.00;5.78;;;;;;;34.86;39.27;94653.41;4894549;29;20032;-79
2021/06/25 12:39:49;;;;;;;32.63;6.03;;;;;;;35.09;38.38;94645.75;4896874;29;20049;-78
2021/06/25 12:42:21;;;;;;;29.63;6.00;;;;;;;34.94;37.64;94651.72;4918340;29;20016;-78
2021/06/25 12:44:46;;;;;;;21.90;6.38;;;;;;;35.11;35.88;94643.53;4912448;29;20028;-82
2021/06/25 12:47:12;;;;;;;30.02;6.88;;;;;;;34.99;36.70;94639.97;4898949;29;20024;-77
2021/06/25 12:49:37;;;;;;;26.25;6.53;;;;;;;34.90;36.37;94650.84;4913765;29;20032;-79
2021/06/25 12:52:24;;;;;;;23.23;6.13;;;;;;;34.93;37.11;94645.56;4898550;29;20028;-79
2021/06/25 12:54:50;;;;;;;25.65;6.22;;;;;;;34.80;40.19;94632.41;4927558;29;20036;-81
2021/06/25 12:57:17;;;;;;;28.70;5.78;;;;;;;34.96;37.99;94636.03;4900287;29;20032;-79
2021/06/25 12:59:47;;;;;;;25.27;6.15;;;;;;;35.09;38.59;94637.66;4931094;29;20035;-77
2021/06/25 13:02:12;;;;;;;24.85;5.85;;;;;;;35.11;37.44;94634.66;4920950;29;20044;-77
2021/06/25 13:04:40;;;;;;;23.02;6.10;;;;;;;34.94;37.64;94627.50;4911850;29;20055;-79
2021/06/25 13:07:07;;;;;;;24.13;6.55;;;;;;;35.09;38.04;94634.16;4893330;29;20394;-77
2021/06/25 13:09:39;;;;;;;26.88;5.72;;;;;;;35.15;38.61;94630.16;4929402;29;20028;-77
2021/06/25 13:12:11;;;;;;;20.10;6.43;;;;;;;35.13;36.74;94621.66;4899656;29;20024;-78
2021/06/25 13:14:41;;;;;;;23.27;6.15;;;;;;;35.16;36.48;94623.66;4891101;29;20028;-82
2021/06/25 13:17:07;;;;;;;26.40;5.50;;;;;;;35.28;38.25;94629.88;4910941;29;20099;-78
2021/06/25 13:19:41;;;;;;;23.52;5.80;;;;;;;34.87;38.44;94617.25;4905702;29;20478;-78
2021/06/25 13:22:18;;;;;;;25.60;5.90;;;;;;;34.72;36.43;94617.88;4896495;29;20123;-78
2021/06/25 13:25:05;;;;;;;22.90;5.68;;;;;;;34.72;38.05;94612.50;4906187;29;20043;-89
2021/06/25 13:27:30;;;;;;;29.25;5.80;;;;;;;34.74;38.87;94612.94;4924849;29;20088;-78
2021/06/25 13:29:57;;;;;;;21.85;5.68;;;;;;;34.64;38.09;94616.06;4880188;29;20458;-79
2021/06/25 13:32:27;;;;;;;24.15;5.57;;;;;;;34.61;37.52;94614.03;4896027;29;20095;-84
2021/06/25 13:35:00;;;;;;;25.58;5.97;;;;;;;34.73;37.69;94616.78;4896319;29;20383;-78
2021/06/25 13:37:48;;;;;;;18.40;5.00;;;;;;;34.87;38.48;94603.03;4912781;29;20040;-81
2021/06/25 13:40:46;;;;;;;24.50;6.45;;;;;;;35.00;36.78;94620.00;4912782;29;20032;-76
2021/06/25 13:43:18;;;;;;;33.07;5.77;;;;;;;34.76;36.34;94610.72;4904327;29;20048;-81
2021/06/25 13:45:44;;;;;;;29.95;5.88;;;;;;;34.33;37.55;94610.25;4908077;29;20279;-80
2021/06/25 13:48:23;;;;;;;25.80;5.93;;;;;;;34.74;37.47;94607.56;4896383;29;20573;-77
2021/06/25 13:50:52;;;;;;;;;;;;;;;34.60;38.95;94606.25;4913713;29;20020;-78
2021/06/25 13:53:34;;;;;;;25.35;5.80;;;;;;;34.47;38.73;94591.16;4912297;29;19942;-77
2021/06/25 13:56:05;;;;;;;26.77;6.05;;;;;;;34.67;38.84;94596.56;4895659;29;20496;-78
2021/06/25 13:58:31;;;;;;;31.27;5.68;;;;;;;34.58;39.10;94598.50;4910011;29;20043;-76
2021/06/25 14:00:58;;;;;;;24.92;5.85;;;;;;;34.60;38.18;94600.88;4897369;29;20475;-76
2021/06/25 14:03:26;;;;;;;22.75;6.03;;;;;;;34.58;35.91;94601.19;4920855;29;20031;-79
2021/06/25 14:06:18;;;;;;;22.53;5.53;;;;;;;34.68;38.37;94598.13;4915735;29;20924;-76
2021/06/25 14:08:44;;;;;;;22.50;4.95;;;;;;;34.63;39.43;94592.94;4911727;29;20036;-75
2021/06/25 14:11:13;;;;;;;28.60;5.80;;;;;;;34.68;37.91;94581.97;4931776;29;20023;-79
2021/06/25 14:13:43;;;;;;;25.45;4.97;;;;;;;34.55;38.73;94577.63;4930944;29;20811;-75
2021/06/25 14:16:29;;;;;;;24.52;6.05;;;;;;;34.58;38.06;94568.88;4931324;29;20038;-80
2021/06/25 14:18:58;;;;;;;20.85;5.07;;;;;;;34.69;36.84;94572.78;4931104;29;20024;-77
2021/06/25 14:21:28;;;;;;;24.92;6.30;;;;;;;34.57;38.46;94569.22;4914045;29;20040;-78
2021/06/25 14:23:54;;;;;;;21.85;5.10;;;;;;;34.43;38.77;94564.13;4931541;29;20020;-75
2021/06/25 14:26:24;;;;;;;27.15;5.90;;;;;;;34.52;38.45;94559.44;4929554;29;20479;-78
2021/06/25 14:28:53;;;;;;;14.85;4.53;;;;;;;34.65;39.02;94577.25;4931154;29;20404;-77
2021/06/25 14:31:19;;;;;;;22.55;5.68;;;;;;;34.60;38.61;94582.84;4914811;29;20063;-77
2021/06/25 14:33:44;;;;;;;19.92;5.80;;;;;;;34.74;38.34;94583.31;4914427;29;20493;-78
2021/06/25 14:36:10;;;;;;;26.88;5.47;;;;;;;34.86;37.99;94593.38;4915406;29;20027;-77
2021/06/25 14:38:35;;;;;;;25.92;5.10;;;;;;;34.64;37.53;94589.16;4929770;29;20456;-77
2021/06/25 14:41:01;;;;;;;20.88;5.60;;;;;;;34.78;38.24;94596.91;4910602;29;20043;-78
2021/06/25 14:43:26;;;;;;;23.35;6.20;;;;;;;34.74;37.23;94602.19;4894332;29;20028;-81
2021/06/25 14:45:52;;;;;;;28.65;5.70;;;;;;;32.55;42.92;94619.44;4912511;29;20040;-78
2021/06/25 14:48:17;;;;;;;50.25;7.80;;;;;;;31.66;45.53;94601.94;4911491;29;20080;-82
2021/06/25 14:50:43;;;;;;;29.52;5.63;;;;;;;31.55;46.91;94607.91;4906679;29;20114;-75
2021/06/25 14:53:09;;;;;;;31.73;6.55;;;;;;;30.81;48.03;94592.41;4930632;29;20500;-84
2021/06/25 14:55:34;;;;;;;25.13;6.93;;;;;;;30.94;45.27;94598.78;4930892;29;20038;-81
2021/06/25 14:58:00;;;;;;;25.52;5.18;;;;;;;30.91;44.67;94614.66;4932355;29;20024;-82
2021/06/25 15:00:25;;;;;;;25.80;6.45;;;;;;;30.13;47.53;94621.28;4912649;29;20035;-83
2021/06/25 15:02:51;;;;;;;25.90;6.05;;;;;;;30.30;46.89;94624.13;4931581;29;20502;-75
2021/06/25 15:07:46;;;;;;;24.73;5.93;;;;;;;30.14;46.42;94638.91;4864144;29;20052;-75
2021/06/25 15:10:12;;;;;;;22.42;5.65;;;;;;;30.00;47.06;94630.13;4853313;29;20079;-76
2021/06/25 15:12:37;;;;;;;25.08;6.18;;;;;;;29.91;47.29;94629.25;4857655;29;20040;-77
2021/06/25 15:15:03;;;;;;;28.15;6.47;;;;;;;30.06;45.81;94644.97;4873865;29;20091;-76
2021/06/25 15:17:29;;;;;;;27.58;6.18;;;;;;;30.01;48.48;94640.53;4850646;29;20347;-78
2021/06/25 15:19:56;;;;;;;31.20;6.15;;;;;;;30.35;49.22;94624.00;4873885;29;20036;-78
2021/06/25 15:22:21;;;;;;;25.48;7.15;;;;;;;30.41;49.52;94606.75;4857072;29;20055;-78
2021/06/25 15:24:47;;;;;;;26.05;5.97;;;;;;;30.99;48.24;94617.41;4885651;29;20510;-76
2021/06/25 15:27:12;;;;;;;24.35;6.47;;;;;;;31.07;47.32;94610.53;4857546;29;20081;-79
2021/06/25 15:29:38;;;;;;;27.30;5.95;;;;;;;31.45;46.50;94611.63;4838972;29;20529;-78
2021/06/25 15:32:04;;;;;;;27.92;5.82;;;;;;;31.57;47.92;94609.19;4851918;29;20071;-78
2021/06/25 15:34:30;;;;;;;42.58;7.13;;;;;;;31.61;46.91;94609.34;4854865;29;20566;-90
2021/06/25 15:36:55;;;;;;;22.73;5.95;;;;;;;31.66;48.97;94601.94;4855444;29;20564;-86
2021/06/25 15:39:21;;;;;;;25.67;5.82;;;;;;;31.44;49.03;94593.19;4851228;29;20057;-81
2021/06/25 15:41:46;;;;;;;26.27;6.38;;;;;;;31.55;49.68;94600.69;4871012;29;20033;-80
2021/06/25 15:44:12;;;;;;;25.08;5.78;;;;;;;31.33;50.30;94584.66;4853086;29;20068;-82
2021/06/25 15:46:37;;;;;;;28.70;5.88;;;;;;;31.05;50.63;94599.34;4877052;29;20108;-78
2021/06/25 15:49:03;;;;;;;21.33;5.20;;;;;;;30.98;49.99;94599.00;4874755;29;20120;-75
2021/06/25 15:51:29;;;;;;;16.92;5.03;;;;;;;30.86;48.83;94590.72;4885109;29;20045;-76
2021/06/25 15:53:54;;;;;;;21.65;5.13;;;;;;;30.99;47.18;94589.84;4871975;29;20032;-80
2021/06/25 15:56:20;;;;;;;24.67;5.38;;;;;;;30.85;51.12;94592.59;4872200;29;20162;-80
2021/06/25 15:58:45;;;;;;;31.08;6.30;;;;;;;30.97;49.13;94590.16;4869242;29;20037;-80
2021/06/25 16:01:11;;;;;;;26.40;5.85;;;;;;;31.17;49.68;94584.28;4869105;29;20086;-80
2021/06/25 16:03:37;;;;;;;21.75;5.97;;;;;;;31.06;49.34;94591.00;4868054;29;20036;-80
2021/06/25 16:06:03;;;;;;;29.60;5.75;;;;;;;31.13;48.31;94579.84;4866448;29;20068;-79
2021/06/25 16:08:37;;;;;;;24.25;6.05;;;;;;;31.07;51.75;94584.56;4854207;29;20040;-80
2021/06/25 16:11:06;;;;;;;22.25;5.65;;;;;;;30.91;52.59;94582.53;4872622;29;20044;-79
2021/06/25 16:13:35;;;;;;;16.80;5.10;;;;;;;30.76;55.24;94591.75;4833610;29;20053;-79
2021/06/25 16:16:01;;;;;;;22.75;5.88;;;;;;;30.50;57.12;94593.47;4873044;29;20559;-78
2021/06/25 16:18:26;;;;;;;25.60;6.28;;;;;;;30.33;59.92;94594.09;4855216;29;20132;-79
2021/06/25 16:20:51;;;;;;;24.98;5.93;;;;;;;30.19;60.53;94604.03;4864043;29;20550;-80
2021/06/25 16:23:17;;;;;;;23.23;5.63;;;;;;;29.99;58.97;94583.13;4870867;29;20044;-78
2021/06/25 16:25:44;;;;;;;20.38;5.70;;;;;;;29.91;57.93;94597.19;4851377;29;20116;-79
2021/06/25 16:28:09;;;;;;;25.52;5.53;;;;;;;29.59;58.21;94587.41;4833664;29;20037;-78
2021/06/25 16:30:35;;;;;;;28.80;5.95;;;;;;;29.43;61.08;94594.16;4851885;29;20424;-79
2021/06/25 16:33:01;;;;;;;29.80;7.03;;;;;;;28.78;66.33;94596.91;4850719;29;20584;-78
2021/06/25 16:35:26;;;;;;;20.30;4.97;;;;;;;28.59;68.86;94588.16;4859388;29;20033;-79
2021/06/25 16:37:52;;;;;;;21.45;6.15;;;;;;;28.14;70.43;94582.47;4855759;29;20021;-79
2021/06/25 16:40:17;;;;;;;26.70;6.55;;;;;;;28.54;69.65;94607.69;4836752;29;20037;-79
2021/06/25 16:42:43;;;;;;;28.63;5.50;;;;;;;28.56;70.42;94616.19;4855118;29;20033;-79
2021/06/25 16:45:09;;;;;;;24.83;6.95;;;;;;;28.43;71.61;94595.59;4871822;29;20044;-79
2021/06/25 16:47:35;;;;;;;18.45;5.63;;;;;;;28.58;72.11;94606.00;4840940;29;20475;-78
2021/06/25 16:50:00;;;;;;;19.70;6.28;;;;;;;28.34;72.77;94610.66;4860646;29;20093;-77